Time;durP1;ratioP1;P1;durP2;ratioP2;P2;SDS_P1;SDS_P2;PMS_P1;PMS_P2;Temp;Humidity;BMP_temperature;BMP_pressure;BME280_temperature;BME280_humidity;BME280_pressure;Samples;Min_cycle;Max_cycle;Signal;HPM_P1;HPM_P2
2022/09/29 00:01:12;;;;;;;7.70;7.10;;;11.60;99.90;;;;;;5034208;28;20963;-67
2022/09/29 00:03:38;;;;;;;7.50;7.00;;;11.60;99.90;;;;;;5034959;28;20185;-67
2022/09/29 00:06:14;;;;;;;7.40;6.90;;;11.60;99.90;;;;;;5020708;28;20306;-67
2022/09/29 00:08:40;;;;;;;7.47;6.70;;;11.60;99.90;;;;;;5015154;28;20411;-67
2022/09/29 00:11:11;;;;;;;7.70;7.00;;;11.60;99.90;;;;;;5015156;28;20468;-67
2022/09/29 00:13:36;;;;;;;7.80;7.20;;;11.60;99.90;;;;;;5015312;28;20571;-66
2022/09/29 00:16:03;;;;;;;7.10;6.47;;;11.50;99.90;;;;;;5015021;28;20456;-67
2022/09/29 00:18:31;;;;;;;7.50;7.00;;;11.50;99.90;;;;;;5013607;28;20199;-67
2022/09/29 00:21:03;;;;;;;6.73;6.23;;;11.50;99.90;;;;;;5013188;28;20825;-67
2022/09/29 00:23:30;;;;;;;8.50;7.70;;;11.50;99.90;;;;;;5013568;28;20536;-66
2022/09/29 00:26:16;;;;;;;7.90;7.30;;;11.50;99.90;;;;;;5015012;28;20453;-67
2022/09/29 00:28:48;;;;;;;7.57;6.97;;;11.50;99.90;;;;;;5014562;28;20932;-67
2022/09/29 00:31:14;;;;;;;7.73;7.03;;;11.60;99.90;;;;;;4996510;28;20476;-67
2022/09/29 00:33:40;;;;;;;7.57;6.87;;;11.60;99.90;;;;;;5014595;28;20401;-67
2022/09/29 00:36:09;;;;;;;7.90;7.10;;;11.50;99.90;;;;;;5013758;28;20433;-66
2022/09/29 00:38:35;;;;;;;7.57;6.90;;;11.50;99.90;;;;;;5013939;28;20762;-66
2022/09/29 00:41:02;;;;;;;6.70;6.20;;;11.50;99.90;;;;;;5013856;28;20437;-67
2022/09/29 00:43:46;;;;;;;7.53;6.93;;;11.50;99.90;;;;;;5013841;28;20423;-67
2022/09/29 00:46:15;;;;;;;7.00;6.50;;;11.50;99.90;;;;;;5013062;28;20953;-74
2022/09/29 00:48:41;;;;;;;7.20;6.70;;;11.50;99.90;;;;;;5014328;28;20477;-67
2022/09/29 00:51:07;;;;;;;7.37;6.80;;;11.50;99.90;;;;;;5013244;28;20876;-67
2022/09/29 00:53:33;;;;;;;7.37;6.70;;;11.60;99.90;;;;;;5013354;28;20425;-67
2022/09/29 00:56:04;;;;;;;7.77;7.17;;;11.50;99.90;;;;;;5014173;28;20189;-67
2022/09/29 00:58:43;;;;;;;7.73;7.20;;;11.50;99.90;;;;;;5013599;28;20408;-67
2022/09/29 01:01:10;;;;;;;7.10;6.50;;;11.50;99.90;;;;;;5014120;28;20409;-66
2022/09/29 01:03:40;;;;;;;6.70;6.10;;;11.50;99.90;;;;;;5013430;28;20525;-66
2022/09/29 01:06:36;;;;;;;6.97;6.37;;;11.50;99.90;;;;;;5028443;28;20456;-67
2022/09/29 01:09:13;;;;;;;7.20;6.70;;;11.50;99.90;;;;;;5015757;28;20429;-66
2022/09/29 01:11:39;;;;;;;7.93;7.13;;;11.40;99.90;;;;;;5032534;28;20567;-66
2022/09/29 01:14:07;;;;;;;6.80;6.30;;;11.40;99.90;;;;;;5033347;28;20417;-66
2022/09/29 01:16:36;;;;;;;7.93;6.83;;;11.40;99.90;;;;;;5032114;28;20761;-66
2022/09/29 01:19:08;;;;;;;8.00;7.40;;;11.40;99.90;;;;;;5033469;28;20432;-67
2022/09/29 01:21:52;;;;;;;7.13;6.63;;;11.40;99.90;;;;;;5031612;28;21401;-67
2022/09/29 01:24:37;;;;;;;7.27;6.70;;;11.30;99.90;;;;;;5032894;28;20416;-66
2022/09/29 01:27:37;;;;;;;7.73;7.03;;;11.30;99.90;;;;;;5033671;28;20388;-66
2022/09/29 01:30:08;;;;;;;7.33;6.73;;;11.30;99.90;;;;;;5032643;28;20420;-67
2022/09/29 01:32:36;;;;;;;7.80;7.20;;;11.30;99.90;;;;;;5032012;28;20860;-67
2022/09/29 01:35:13;;;;;;;7.83;7.23;;;11.20;99.90;;;;;;5032553;28;20425;-67
2022/09/29 01:37:54;;;;;;;8.47;7.67;;;11.20;99.90;;;;;;5032597;28;20473;-67
2022/09/29 01:40:33;;;;;;;8.63;7.83;;;11.30;99.90;;;;;;5032509;28;20424;-67
2022/09/29 01:43:41;;;;;;;11.13;8.70;;;11.30;99.90;;;;;;5033291;28;20752;-67
2022/09/29 01:46:30;;;;;;;8.27;7.60;;;11.20;99.90;;;;;;5023307;28;21019;-66
2022/09/29 01:48:59;;;;;;;8.83;8.03;;;11.20;99.90;;;;;;5032995;28;21071;-66
2022/09/29 01:51:34;;;;;;;9.70;8.97;;;11.20;99.90;;;;;;5031086;28;21022;-67
2022/09/29 01:54:04;;;;;;;9.73;8.93;;;11.20;99.90;;;;;;5033114;28;20396;-67
2022/09/29 01:56:40;;;;;;;9.30;8.60;;;11.30;99.90;;;;;;5032398;28;20500;-67
2022/09/29 01:59:29;;;;;;;9.77;8.13;;;11.20;99.90;;;;;;5033014;28;20400;-67
2022/09/29 02:02:00;;;;;;;11.23;9.43;;;11.30;99.90;;;;;;5013220;28;20886;-67
2022/09/29 02:04:35;;;;;;;10.30;9.40;;;11.30;99.90;;;;;;5011233;28;20417;-67
2022/09/29 02:07:15;;;;;;;10.33;9.27;;;11.40;99.90;;;;;;5004096;28;20953;-66
2022/09/29 02:09:45;;;;;;;10.40;9.40;;;11.40;99.90;;;;;;5012469;28;20407;-66
2022/09/29 02:12:15;;;;;;;10.63;9.50;;;11.40;99.90;;;;;;5012930;28;20454;-67
2022/09/29 02:14:45;;;;;;;10.40;9.40;;;11.40;99.90;;;;;;5012590;28;20915;-66
2022/09/29 02:17:19;;;;;;;9.40;8.50;;;11.40;99.90;;;;;;4995407;28;20778;-66
2022/09/29 02:19:49;;;;;;;9.93;9.00;;;11.40;99.90;;;;;;5010742;28;20448;-67
2022/09/29 02:22:17;;;;;;;9.17;8.37;;;11.60;99.90;;;;;;5011034;28;20441;-67
2022/09/29 02:24:43;;;;;;;10.17;9.13;;;11.50;99.90;;;;;;5012897;28;20419;-67
2022/09/29 02:27:10;;;;;;;9.20;8.40;;;11.60;99.90;;;;;;5012784;28;20508;-66
2022/09/29 02:29:37;;;;;;;10.17;9.37;;;11.50;99.90;;;;;;5012238;28;20443;-67
2022/09/29 02:32:05;;;;;;;10.13;9.20;;;11.60;99.90;;;;;;4995274;28;20458;-66
2022/09/29 02:34:35;;;;;;;9.50;8.70;;;11.50;99.90;;;;;;5011921;28;20512;-66
2022/09/29 02:37:23;;;;;;;11.00;10.00;;;11.60;99.90;;;;;;5012725;28;20582;-66
2022/09/29 02:40:24;;;;;;;9.80;8.80;;;11.60;99.90;;;;;;5012681;28;20424;-66
2022/09/29 02:43:19;;;;;;;9.53;8.73;;;11.60;99.90;;;;;;5012373;28;20437;-66
2022/09/29 02:45:59;;;;;;;10.30;9.37;;;11.70;99.90;;;;;;5015750;28;20417;-67
2022/09/29 02:48:25;;;;;;;9.10;8.40;;;11.60;99.90;;;;;;4933278;28;20842;-67
2022/09/29 02:51:06;;;;;;;11.20;9.10;;;11.60;99.90;;;;;;5015723;28;20438;-66
2022/09/29 02:54:04;;;;;;;9.10;8.30;;;11.70;99.90;;;;;;5015921;28;20566;-66
2022/09/29 02:56:49;;;;;;;9.97;8.80;;;11.70;99.90;;;;;;5011656;28;20931;-66
2022/09/29 02:59:19;;;;;;;9.60;8.53;;;11.60;99.90;;;;;;4996851;28;20410;-66
2022/09/29 03:01:50;;;;;;;9.33;8.47;;;11.70;99.90;;;;;;4996770;28;20413;-66
2022/09/29 03:04:16;;;;;;;9.63;8.73;;;11.60;99.90;;;;;;4996487;28;20406;-67
2022/09/29 03:06:42;;;;;;;9.50;8.70;;;11.60;99.90;;;;;;5015119;28;20477;-66
2022/09/29 03:09:08;;;;;;;10.10;9.20;;;11.60;99.90;;;;;;5016136;28;20430;-70
2022/09/29 03:11:34;;;;;;;9.17;8.37;;;11.60;99.90;;;;;;5035298;28;20467;-66
2022/09/29 03:13:59;;;;;;;9.10;8.30;;;11.50;99.90;;;;;;5034937;28;20190;-67
2022/09/29 03:16:25;;;;;;;12.60;8.10;;;11.50;99.90;;;;;;5034906;28;20175;-67
2022/09/29 03:18:51;;;;;;;9.93;8.93;;;11.50;99.90;;;;;;5035515;28;20502;-66
2022/09/29 03:21:17;;;;;;;9.50;8.70;;;11.50;99.90;;;;;;5035104;28;20897;-66
2022/09/29 03:23:42;;;;;;;8.57;7.77;;;11.50;99.90;;;;;;5035135;28;20690;-66
2022/09/29 03:26:08;;;;;;;9.20;8.40;;;11.50;99.90;;;;;;5035682;28;20189;-66
2022/09/29 03:28:34;;;;;;;9.97;8.97;;;11.50;99.90;;;;;;5035033;28;20615;-67
2022/09/29 03:31:05;;;;;;;9.40;8.50;;;11.40;99.90;;;;;;5034966;28;20625;-67
2022/09/29 03:33:31;;;;;;;9.30;8.50;;;11.30;99.90;;;;;;5034629;28;20617;-66
2022/09/29 03:35:56;;;;;;;8.97;8.17;;;11.40;99.90;;;;;;5035580;28;20465;-66
2022/09/29 03:38:22;;;;;;;9.13;8.17;;;11.30;99.90;;;;;;5017090;28;20220;-76
2022/09/29 03:40:48;;;;;;;12.23;11.07;;;11.30;99.90;;;;;;5034360;28;20219;-66
2022/09/29 03:43:13;;;;;;;10.60;9.60;;;11.30;99.90;;;;;;5035410;28;20188;-66
2022/09/29 03:45:48;;;;;;;10.07;9.20;;;11.30;99.90;;;;;;5034626;28;20182;-67
2022/09/29 03:48:13;;;;;;;10.67;9.70;;;11.20;99.90;;;;;;5035656;28;20173;-66
2022/09/29 03:50:39;;;;;;;10.43;9.30;;;11.20;99.90;;;;;;5033628;28;20431;-66
2022/09/29 03:53:05;;;;;;;9.63;8.63;;;11.20;99.90;;;;;;5033117;28;20220;-68
2022/09/29 03:55:30;;;;;;;9.40;8.70;;;11.30;99.90;;;;;;5030902;28;20234;-67
2022/09/29 03:57:56;;;;;;;10.10;9.10;;;11.10;99.90;;;;;;5031641;28;20482;-67
2022/09/29 04:00:22;;;;;;;7.73;7.10;;;11.10;99.90;;;;;;5033829;28;20188;-67
2022/09/29 04:02:47;;;;;;;9.77;8.90;;;11.10;99.90;;;;;;5034173;28;20434;-67
2022/09/29 04:05:13;;;;;;;8.97;8.07;;;11.10;99.90;;;;;;5026946;28;20226;-67
2022/09/29 04:07:39;;;;;;;10.27;7.50;;;11.00;99.90;;;;;;5013320;28;20181;-67
2022/09/29 04:10:05;;;;;;;9.60;8.57;;;11.00;99.90;;;;;;5012727;28;20440;-67
2022/09/29 04:12:31;;;;;;;12.00;10.80;;;11.00;99.90;;;;;;5000497;28;20204;-68
2022/09/29 04:14:56;;;;;;;9.77;8.83;;;11.00;99.90;;;;;;4995868;28;20441;-68
2022/09/29 04:17:22;;;;;;;10.30;9.30;;;10.90;99.90;;;;;;5001775;28;20179;-68
2022/09/29 04:19:47;;;;;;;9.77;8.70;;;11.00;99.90;;;;;;5010776;28;20192;-67
2022/09/29 04:22:17;;;;;;;11.10;9.97;;;10.90;99.90;;;;;;4993810;28;20926;-70
2022/09/29 04:24:43;;;;;;;9.70;8.70;;;10.90;99.90;;;;;;5011855;28;20264;-67
2022/09/29 04:27:09;;;;;;;10.33;8.93;;;10.90;99.90;;;;;;5013831;28;20473;-68
2022/09/29 04:29:34;;;;;;;10.07;9.03;;;10.90;99.90;;;;;;5013861;28;20876;-67
2022/09/29 04:32:00;;;;;;;8.63;7.87;;;10.80;99.90;;;;;;5014189;28;20271;-67
2022/09/29 04:34:26;;;;;;;10.60;9.00;;;10.80;99.90;;;;;;5014019;28;20629;-68
2022/09/29 04:36:52;;;;;;;9.37;8.47;;;10.80;99.90;;;;;;5014548;28;20174;-68
2022/09/29 04:39:17;;;;;;;10.13;9.13;;;10.80;99.90;;;;;;5014403;28;20194;-68
2022/09/29 04:41:43;;;;;;;9.77;8.87;;;10.90;99.90;;;;;;5013575;28;20413;-67
2022/09/29 04:44:09;;;;;;;9.13;8.23;;;10.90;99.90;;;;;;5014317;28;20511;-67
2022/09/29 04:46:35;;;;;;;9.13;8.30;;;10.80;99.90;;;;;;5013609;28;20427;-67
2022/09/29 04:49:01;;;;;;;9.67;8.77;;;10.80;99.90;;;;;;5013650;28;20781;-67
2022/09/29 04:51:26;;;;;;;8.93;8.07;;;10.80;99.90;;;;;;5013860;28;20568;-71
2022/09/29 04:53:52;;;;;;;10.60;7.80;;;10.80;99.90;;;;;;5013597;28;20194;-68
2022/09/29 04:56:18;;;;;;;10.93;8.83;;;10.90;99.90;;;;;;5013673;28;20277;-67
2022/09/29 04:58:44;;;;;;;10.53;9.50;;;10.70;99.90;;;;;;5013247;28;20178;-67
2022/09/29 05:01:14;;;;;;;9.70;8.80;;;10.80;99.90;;;;;;5013619;28;20430;-68
2022/09/29 05:03:40;;;;;;;9.87;8.97;;;10.70;99.90;;;;;;5011980;28;20174;-68
2022/09/29 05:06:08;;;;;;;10.87;9.43;;;10.70;99.90;;;;;;5013333;28;20946;-67
2022/09/29 05:08:34;;;;;;;9.30;8.40;;;10.70;99.90;;;;;;5012381;28;20437;-67
2022/09/29 05:11:05;;;;;;;9.37;7.97;;;10.70;99.90;;;;;;5013969;28;20515;-67
2022/09/29 05:13:31;;;;;;;9.80;9.00;;;10.70;99.90;;;;;;5013211;28;20418;-67
2022/09/29 05:15:57;;;;;;;10.30;9.40;;;10.70;99.90;;;;;;5013854;28;20498;-68
2022/09/29 05:18:26;;;;;;;10.37;9.30;;;10.70;99.90;;;;;;5011281;28;20603;-67
2022/09/29 05:20:52;;;;;;;9.93;9.13;;;10.70;99.90;;;;;;5011259;28;20183;-67
2022/09/29 05:23:18;;;;;;;10.87;9.80;;;10.60;99.90;;;;;;5013584;28;20497;-67
2022/09/29 05:25:44;;;;;;;9.90;9.00;;;10.60;99.90;;;;;;5013073;28;20573;-68
2022/09/29 05:28:11;;;;;;;9.20;8.30;;;10.60;99.90;;;;;;4996026;28;20436;-67
2022/09/29 05:30:40;;;;;;;9.73;8.93;;;10.60;99.90;;;;;;5013126;28;20481;-67
2022/09/29 05:33:05;;;;;;;9.07;8.27;;;10.50;99.90;;;;;;5013625;28;20455;-67
2022/09/29 05:35:31;;;;;;;10.73;9.63;;;10.50;99.90;;;;;;5012964;28;20420;-68
2022/09/29 05:37:57;;;;;;;10.90;9.77;;;10.50;99.90;;;;;;5013219;28;20208;-67
2022/09/29 05:40:23;;;;;;;11.57;10.50;;;10.50;99.90;;;;;;4995814;28;20190;-67
2022/09/29 05:42:49;;;;;;;11.20;9.10;;;10.50;99.90;;;;;;5012798;28;20809;-67
2022/09/29 05:45:15;;;;;;;9.30;8.40;;;10.50;99.90;;;;;;5013041;28;20821;-67
2022/09/29 05:47:42;;;;;;;10.23;9.27;;;10.50;99.90;;;;;;5012102;28;20437;-67
2022/09/29 05:50:10;;;;;;;14.13;9.60;;;10.50;99.90;;;;;;4994878;28;20242;-67
2022/09/29 05:52:36;;;;;;;10.50;9.50;;;10.50;99.90;;;;;;5012279;28;20549;-67
2022/09/29 05:55:02;;;;;;;10.97;9.93;;;10.50;99.90;;;;;;5012771;28;20504;-67
2022/09/29 05:57:28;;;;;;;10.77;9.87;;;10.50;99.90;;;;;;5013219;28;20562;-67
2022/09/29 05:59:54;;;;;;;10.30;9.30;;;10.50;99.90;;;;;;5010485;28;20529;-68
2022/09/29 06:02:21;;;;;;;11.47;10.47;;;10.50;99.90;;;;;;5012406;28;20194;-67
2022/09/29 06:04:46;;;;;;;10.53;9.60;;;10.50;99.90;;;;;;5009389;28;20943;-68
2022/09/29 06:07:12;;;;;;;12.17;11.17;;;10.50;99.90;;;;;;5011338;28;20473;-67
2022/09/29 06:09:38;;;;;;;11.10;10.10;;;10.50;99.90;;;;;;5011538;28;20232;-67
2022/09/29 06:12:04;;;;;;;11.43;10.33;;;10.40;99.90;;;;;;5012806;28;20217;-67
2022/09/29 06:14:29;;;;;;;11.80;10.73;;;10.50;99.90;;;;;;5012970;28;20269;-68
2022/09/29 06:16:55;;;;;;;10.93;10.03;;;10.90;99.90;;;;;;5006544;28;20572;-68
2022/09/29 06:19:21;;;;;;;8.30;7.60;;;11.30;99.90;;;;;;5003362;28;20195;-68
2022/09/29 06:21:46;;;;;;;9.50;8.57;;;12.10;99.90;;;;;;5011481;28;20283;-68
2022/09/29 06:24:12;;;;;;;10.60;9.13;;;13.00;99.90;;;;;;5012890;28;20322;-68
2022/09/29 06:26:38;;;;;;;10.60;9.60;;;13.40;99.90;;;;;;5010803;28;20340;-68
2022/09/29 06:29:04;;;;;;;12.80;11.70;;;13.80;99.90;;;;;;5000405;28;20532;-68
2022/09/29 06:31:30;;;;;;;10.70;9.60;;;14.10;99.90;;;;;;5001493;28;20245;-68
2022/09/29 06:33:58;;;;;;;10.40;9.50;;;14.30;99.90;;;;;;5002659;28;20439;-68
2022/09/29 06:39:15;;;;;;;11.40;10.30;;;14.50;99.90;;;;;;5001300;28;20402;-68
2022/09/29 06:41:47;;;;;;;12.90;11.60;;;14.60;99.80;;;;;;5002127;28;20433;-68
2022/09/29 06:44:13;;;;;;;8.87;8.07;;;14.60;99.90;;;;;;5001127;28;20816;-68
2022/09/29 06:46:39;;;;;;;9.20;8.47;;;14.70;99.90;;;;;;5000790;28;20419;-68
2022/09/29 06:49:04;;;;;;;24.07;17.77;;;15.10;99.90;;;;;;5002420;28;20799;-68
2022/09/29 06:51:30;;;;;;;14.57;11.53;;;15.40;99.90;;;;;;5006036;28;20221;-68
2022/09/29 06:53:56;;;;;;;12.03;10.30;;;15.60;99.90;;;;;;5001634;28;20180;-68
2022/09/29 06:56:21;;;;;;;13.13;11.30;;;15.90;99.90;;;;;;5002958;28;20186;-67
2022/09/29 06:58:47;;;;;;;10.70;9.60;;;16.00;99.60;;;;;;5003328;28;20563;-68
2022/09/29 07:01:13;;;;;;;14.90;10.37;;;16.10;99.40;;;;;;5005360;28;20545;-68
2022/09/29 07:03:40;;;;;;;31.10;23.90;;;16.30;99.20;;;;;;5002229;28;20409;-68
2022/09/29 07:06:08;;;;;;;123.47;77.07;;;16.30;98.70;;;;;;5024428;28;20673;-69
2022/09/29 07:08:35;;;;;;;109.80;63.30;;;16.40;98.70;;;;;;5032220;28;20500;-68
2022/09/29 07:11:04;;;;;;;62.17;40.17;;;16.60;98.70;;;;;;5031788;28;20504;-69
2022/09/29 07:13:30;;;;;;;59.47;40.00;;;16.70;98.00;;;;;;5014462;28;20456;-68
2022/09/29 07:16:12;;;;;;;27.30;21.00;;;16.80;97.00;;;;;;5031086;28;20972;-69
2022/09/29 07:18:40;;;;;;;31.63;23.47;;;17.00;96.00;;;;;;5012455;28;20448;-69
2022/09/29 07:21:10;;;;;;;18.57;14.63;;;16.90;95.60;;;;;;5031458;28;20532;-68
2022/09/29 07:23:37;;;;;;;28.50;22.87;;;16.90;95.00;;;;;;5031396;28;20420;-69
2022/09/29 07:26:05;;;;;;;25.10;18.43;;;16.80;96.50;;;;;;5031891;28;20448;-69
2022/09/29 07:28:31;;;;;;;22.47;19.90;;;16.90;96.30;;;;;;5031992;28;20412;-68
2022/09/29 07:31:01;;;;;;;16.13;14.03;;;16.90;95.70;;;;;;5014455;28;20439;-69
2022/09/29 07:33:29;;;;;;;18.23;16.17;;;16.90;95.30;;;;;;5017907;28;20424;-69
2022/09/29 07:35:55;;;;;;;10.90;9.80;;;16.90;95.50;;;;;;5034679;28;20909;-68
2022/09/29 07:38:20;;;;;;;22.93;15.97;;;17.00;95.50;;;;;;5035519;28;20444;-69
2022/09/29 07:40:47;;;;;;;17.27;13.40;;;16.90;95.30;;;;;;5034819;28;20412;-68
2022/09/29 07:43:12;;;;;;;13.33;11.90;;;16.90;95.60;;;;;;5035424;28;20417;-69
2022/09/29 07:45:38;;;;;;;10.93;9.70;;;17.00;95.30;;;;;;5034662;28;20524;-69
2022/09/29 07:48:04;;;;;;;11.13;9.93;;;16.80;93.80;;;;;;5034266;28;20273;-69
2022/09/29 07:50:30;;;;;;;12.03;10.80;;;16.80;95.20;;;;;;5029228;28;20183;-69
2022/09/29 07:52:56;;;;;;;14.40;12.00;;;16.70;93.90;;;;;;5026052;28;20198;-68
2022/09/29 07:55:22;;;;;;;12.87;11.60;;;16.60;96.60;;;;;;5026379;28;20412;-68
2022/09/29 07:57:48;;;;;;;11.40;10.43;;;16.70;96.40;;;;;;5023162;28;20221;-69
2022/09/29 08:00:16;;;;;;;12.40;11.10;;;16.30;94.30;;;;;;5025484;28;20406;-68
2022/09/29 08:02:42;;;;;;;15.23;12.90;;;16.20;95.90;;;;;;5024427;28;20426;-69
2022/09/29 08:05:08;;;;;;;11.43;10.27;;;16.30;97.10;;;;;;5023048;28;20999;-69
2022/09/29 08:07:34;;;;;;;11.37;10.30;;;16.50;97.00;;;;;;5025846;28;20441;-69
2022/09/29 08:10:00;;;;;;;25.60;19.70;;;16.70;96.30;;;;;;5021244;28;20424;-70
2022/09/29 08:12:26;;;;;;;10.83;9.77;;;17.00;97.30;;;;;;5025210;28;20233;-70
2022/09/29 08:14:52;;;;;;;12.10;10.80;;;17.10;96.00;;;;;;5021846;28;20232;-70
2022/09/29 08:17:17;;;;;;;15.53;11.20;;;17.00;95.10;;;;;;5026091;28;20925;-70
2022/09/29 08:19:43;;;;;;;13.17;11.33;;;17.10;97.80;;;;;;5026730;28;20634;-71
2022/09/29 08:22:09;;;;;;;14.97;11.87;;;17.10;98.00;;;;;;5028406;28;20308;-71
2022/09/29 08:24:35;;;;;;;14.13;12.67;;;17.20;98.10;;;;;;5023835;28;20171;-70
2022/09/29 08:27:04;;;;;;;11.27;10.20;;;17.40;98.10;;;;;;5022068;28;20178;-71
2022/09/29 08:29:29;;;;;;;11.50;10.40;;;17.50;97.40;;;;;;5024888;28;20416;-71
2022/09/29 08:31:55;;;;;;;10.93;9.83;;;17.60;96.70;;;;;;5024477;28;20448;-70
2022/09/29 08:34:21;;;;;;;12.13;11.13;;;17.60;97.10;;;;;;5025343;28;20531;-71
2022/09/29 08:36:47;;;;;;;11.20;10.10;;;17.70;97.20;;;;;;5021839;28;20198;-71
2022/09/29 08:39:14;;;;;;;11.20;10.10;;;17.80;97.40;;;;;;5005270;28;20421;-71
2022/09/29 08:41:56;;;;;;;11.00;9.87;;;17.80;96.60;;;;;;5022955;28;20178;-79
2022/09/29 08:44:32;;;;;;;11.73;10.67;;;17.90;96.50;;;;;;5026436;28;20455;-71
2022/09/29 08:47:05;;;;;;;11.70;10.60;;;17.90;96.10;;;;;;5020121;28;20453;-71
2022/09/29 08:49:42;;;;;;;10.50;9.60;;;18.00;96.20;;;;;;5022985;28;20426;-71
2022/09/29 08:52:18;;;;;;;11.23;10.00;;;18.10;96.10;;;;;;5022677;28;20855;-71
2022/09/29 08:54:46;;;;;;;9.83;8.83;;;18.10;96.60;;;;;;5027304;28;20515;-71
2022/09/29 08:57:18;;;;;;;9.10;8.30;;;18.20;96.20;;;;;;5030373;28;20435;-71
2022/09/29 08:59:54;;;;;;;9.50;8.37;;;18.20;96.00;;;;;;5023434;28;20402;-71
2022/09/29 09:02:45;;;;;;;10.73;9.83;;;18.20;95.90;;;;;;5023020;28;20774;-71
2022/09/29 09:05:24;;;;;;;9.10;8.40;;;18.30;95.40;;;;;;5025354;28;20449;-70
2022/09/29 09:08:08;;;;;;;10.80;9.90;;;18.30;95.40;;;;;;5033248;28;20405;-68
2022/09/29 09:10:39;;;;;;;8.87;7.90;;;18.50;94.30;;;;;;5033917;28;20442;-67
2022/09/29 09:13:23;;;;;;;10.37;9.50;;;18.30;92.40;;;;;;5032914;28;20468;-68
2022/09/29 09:16:01;;;;;;;9.83;8.50;;;18.20;92.60;;;;;;5033026;28;20550;-68
2022/09/29 09:18:55;;;;;;;9.83;8.93;;;18.00;93.90;;;;;;5033715;28;20410;-67
2022/09/29 09:21:42;;;;;;;9.47;8.67;;;17.80;92.90;;;;;;5033630;28;20404;-67
2022/09/29 09:24:13;;;;;;;9.37;8.40;;;17.70;94.90;;;;;;5032893;28;20991;-67
2022/09/29 09:26:43;;;;;;;10.40;9.40;;;17.50;93.60;;;;;;5014550;28;20994;-68
2022/09/29 09:29:27;;;;;;;9.90;9.10;;;17.40;93.90;;;;;;5032707;28;21008;-67
2022/09/29 09:32:02;;;;;;;9.57;8.73;;;17.40;95.10;;;;;;5023518;28;20464;-67
2022/09/29 09:34:39;;;;;;;9.27;8.40;;;17.30;96.40;;;;;;5024538;28;20413;-68
2022/09/29 09:37:07;;;;;;;9.50;8.40;;;17.30;97.20;;;;;;5023929;28;20500;-68
2022/09/29 09:39:55;;;;;;;9.10;8.40;;;17.30;96.80;;;;;;5021949;28;20952;-68
2022/09/29 09:42:30;;;;;;;11.30;10.50;;;17.50;96.20;;;;;;5021550;28;20813;-68
2022/09/29 09:45:22;;;;;;;8.93;8.13;;;17.70;95.40;;;;;;5020655;28;20454;-67
2022/09/29 09:48:07;;;;;;;80.40;61.50;;;17.80;94.20;;;;;;5011527;28;20528;-74
2022/09/29 09:50:38;;;;;;;113.20;83.13;;;18.00;94.50;;;;;;5023195;28;20841;-67
2022/09/29 09:53:13;;;;;;;15.73;14.27;;;18.20;92.80;;;;;;5022065;28;20472;-68
2022/09/29 09:55:39;;;;;;;38.77;10.33;;;18.30;91.90;;;;;;5024337;28;20409;-68
2022/09/29 09:58:08;;;;;;;14.53;7.50;;;18.40;90.80;;;;;;5020782;28;20414;-68
2022/09/29 10:00:50;;;;;;;7.03;6.43;;;18.50;90.60;;;;;;5005487;28;20413;-68
2022/09/29 10:03:16;;;;;;;7.90;5.97;;;18.30;89.50;;;;;;5021848;28;20455;-68
2022/09/29 10:05:44;;;;;;;6.50;6.00;;;18.30;90.70;;;;;;5010462;28;20537;-68
2022/09/29 10:08:28;;;;;;;7.10;6.50;;;18.10;90.60;;;;;;5006357;28;20436;-67
2022/09/29 10:10:54;;;;;;;5.60;5.10;;;18.10;91.00;;;;;;5005583;28;20951;-68
2022/09/29 10:13:23;;;;;;;9.60;7.40;;;18.20;91.40;;;;;;5012916;28;20473;-68
2022/09/29 10:16:13;;;;;;;5.80;5.40;;;18.50;91.40;;;;;;5000908;28;20514;-68
2022/09/29 10:18:51;;;;;;;8.23;7.53;;;18.90;90.50;;;;;;4995886;28;20451;-68
2022/09/29 10:21:38;;;;;;;6.23;5.70;;;19.20;89.20;;;;;;4993411;28;20418;-68
2022/09/29 10:24:18;;;;;;;7.43;6.93;;;19.50;86.60;;;;;;4992715;28;20410;-68
2022/09/29 10:26:46;;;;;;;6.60;6.13;;;19.80;85.00;;;;;;4992158;28;20426;-68
2022/09/29 10:29:31;;;;;;;5.67;5.17;;;20.00;84.00;;;;;;4975876;28;20413;-68
2022/09/29 10:32:01;;;;;;;6.80;6.30;;;19.90;81.30;;;;;;4992698;28;20458;-67
2022/09/29 10:34:28;;;;;;;6.00;5.60;;;19.70;80.20;;;;;;4993176;28;20411;-68
2022/09/29 10:36:57;;;;;;;7.63;7.03;;;19.50;82.40;;;;;;4992559;28;20453;-68
2022/09/29 10:39:44;;;;;;;7.77;7.07;;;19.40;83.30;;;;;;4975762;28;20493;-68
2022/09/29 10:42:24;;;;;;;4.37;4.10;;;19.50;81.80;;;;;;5006797;28;20495;-68
2022/09/29 10:45:09;;;;;;;5.90;5.40;;;19.80;81.10;;;;;;5011851;28;20394;-68
2022/09/29 10:47:36;;;;;;;5.07;4.53;;;20.00;79.70;;;;;;5012805;28;20417;-68
2022/09/29 10:50:15;;;;;;;4.37;4.00;;;20.30;79.80;;;;;;5011477;28;20410;-68
2022/09/29 10:53:02;;;;;;;5.43;5.13;;;20.50;78.50;;;;;;5012406;28;20515;-68
2022/09/29 10:55:31;;;;;;;5.27;4.83;;;20.60;78.20;;;;;;5012392;28;20870;-68
2022/09/29 10:58:02;;;;;;;4.80;4.50;;;20.80;76.40;;;;;;5012223;28;20760;-68
2022/09/29 11:00:47;;;;;;;7.03;6.63;;;21.10;75.20;;;;;;5012420;28;20394;-68
2022/09/29 11:03:20;;;;;;;4.60;4.30;;;21.00;71.00;;;;;;5012259;28;20399;-68
2022/09/29 11:05:58;;;;;;;6.87;6.43;;;21.20;70.80;;;;;;5025093;28;20460;-68
2022/09/29 11:08:27;;;;;;;6.10;5.60;;;21.00;71.60;;;;;;5036638;28;20498;-68
2022/09/29 11:11:22;;;;;;;5.37;4.97;;;20.70;70.90;;;;;;5034607;28;20433;-68
2022/09/29 11:13:49;;;;;;;5.90;5.40;;;20.40;72.00;;;;;;5035989;28;20433;-68
2022/09/29 11:16:33;;;;;;;5.50;5.00;;;20.20;74.20;;;;;;5035696;28;20424;-67
2022/09/29 11:19:13;;;;;;;5.90;5.50;;;19.90;78.60;;;;;;5034690;28;20425;-67
2022/09/29 11:21:41;;;;;;;4.93;4.53;;;19.70;79.40;;;;;;5035691;28;20401;-67
2022/09/29 11:24:34;;;;;;;6.03;5.53;;;19.60;77.60;;;;;;5017031;28;20515;-67
2022/09/29 11:27:38;;;;;;;5.63;5.23;;;19.30;80.60;;;;;;5034677;28;20441;-68
2022/09/29 11:30:41;;;;;;;5.93;5.53;;;19.00;82.50;;;;;;5035108;28;20417;-67
2022/09/29 11:33:20;;;;;;;5.90;5.47;;;18.70;86.90;;;;;;5035069;28;20444;-67
2022/09/29 11:36:00;;;;;;;5.37;5.03;;;18.70;87.20;;;;;;5035383;28;20455;-68
2022/09/29 11:38:44;;;;;;;7.13;5.67;;;19.00;88.20;;;;;;5035925;28;20416;-68
2022/09/29 11:41:32;;;;;;;13.70;5.63;;;19.10;83.40;;;;;;5034379;28;20829;-67
2022/09/29 11:44:13;;;;;;;5.63;5.33;;;19.00;80.30;;;;;;5034884;28;20398;-68
2022/09/29 11:47:10;;;;;;;5.27;4.83;;;18.80;82.60;;;;;;5017784;28;20413;-68
2022/09/29 11:50:01;;;;;;;5.20;4.80;;;18.70;82.90;;;;;;5035246;28;20762;-67
2022/09/29 11:52:52;;;;;;;5.13;4.80;;;18.50;83.40;;;;;;5031904;28;20487;-67
2022/09/29 11:55:46;;;;;;;4.43;4.13;;;18.30;82.00;;;;;;5035362;28;20401;-67
2022/09/29 11:58:31;;;;;;;5.13;4.83;;;18.10;83.20;;;;;;5034526;28;20417;-67
2022/09/29 12:01:20;;;;;;;6.23;4.80;;;17.90;83.60;;;;;;5034603;28;20834;-68
2022/09/29 12:04:06;;;;;;;5.83;5.43;;;17.80;86.70;;;;;;5035087;28;20444;-67
2022/09/29 12:06:43;;;;;;;5.00;4.70;;;17.70;86.00;;;;;;5017147;28;20547;-68
2022/09/29 12:09:21;;;;;;;6.20;4.40;;;17.60;85.90;;;;;;5034434;28;20406;-67
2022/09/29 12:12:12;;;;;;;4.97;4.63;;;17.50;84.90;;;;;;5034187;28;20500;-67
2022/09/29 12:14:46;;;;;;;5.07;4.60;;;17.30;80.80;;;;;;5034060;28;20498;-67
2022/09/29 12:17:16;;;;;;;4.97;4.57;;;17.30;84.10;;;;;;5032927;28;20425;-67
2022/09/29 12:19:44;;;;;;;4.23;4.00;;;17.30;87.10;;;;;;5034010;28;20495;-67
2022/09/29 12:22:17;;;;;;;4.47;4.07;;;17.30;88.20;;;;;;5016033;28;20444;-67
2022/09/29 12:24:50;;;;;;;3.87;3.67;;;17.30;86.80;;;;;;5034654;28;20403;-67
2022/09/29 12:27:30;;;;;;;4.17;3.90;;;17.40;87.00;;;;;;5033996;28;20491;-67
2022/09/29 12:30:13;;;;;;;4.40;4.00;;;17.50;86.20;;;;;;5033960;28;20416;-68
2022/09/29 12:33:16;;;;;;;4.27;4.07;;;17.70;86.10;;;;;;4952187;28;21049;-67
2022/09/29 12:35:47;;;;;;;4.60;4.30;;;17.80;86.60;;;;;;4954186;29;20428;-67
2022/09/29 12:38:35;;;;;;;4.50;4.30;;;17.90;84.80;;;;;;4953509;29;20752;-67
2022/09/29 12:41:20;;;;;;;4.63;4.33;;;17.90;82.40;;;;;;4953435;29;20507;-67
2022/09/29 12:44:04;;;;;;;4.03;3.70;;;17.90;84.60;;;;;;4954000;29;20417;-67
2022/09/29 12:46:44;;;;;;;4.37;4.17;;;17.90;83.80;;;;;;4954016;29;20517;-67
2022/09/29 12:49:30;;;;;;;4.73;3.97;;;17.90;82.90;;;;;;4953322;29;20412;-68
2022/09/29 12:51:56;;;;;;;4.10;3.90;;;17.90;83.10;;;;;;4953500;29;20465;-74
2022/09/29 12:54:48;;;;;;;3.93;3.73;;;17.90;83.30;;;;;;4952964;29;20451;-68
2022/09/29 12:57:17;;;;;;;4.37;3.97;;;17.80;83.40;;;;;;4952066;29;20453;-68
2022/09/29 13:00:06;;;;;;;4.00;3.80;;;17.80;79.70;;;;;;4953594;29;20421;-67
2022/09/29 13:03:04;;;;;;;4.00;3.60;;;17.80;80.60;;;;;;4936193;29;20455;-67
2022/09/29 13:05:51;;;;;;;5.27;4.87;;;17.80;82.10;;;;;;4953473;29;20472;-70
2022/09/29 13:08:39;;;;;;;3.70;3.50;;;17.70;81.60;;;;;;4952897;29;20421;-70
2022/09/29 13:11:23;;;;;;;4.00;3.73;;;17.50;82.90;;;;;;5006947;28;20853;-70